createdAt,value
2019-03-03T00:00:31.406Z,1005.53
2019-03-03T00:01:31.010Z,1005.53
2019-03-03T00:02:30.988Z,1005.56
2019-03-03T00:03:31.018Z,1005.57
2019-03-03T00:04:30.978Z,1005.61
2019-03-03T00:05:31.031Z,1005.55
2019-03-03T00:06:31.661Z,1005.52
2019-03-03T00:07:31.009Z,1005.52
2019-03-03T00:08:30.939Z,1005.52
2019-03-03T00:09:30.928Z,1005.51
2019-03-03T00:10:30.996Z,1005.44
2019-03-03T00:11:31.642Z,1005.44
2019-03-03T00:12:30.882Z,1005.39
2019-03-03T00:13:31.041Z,1005.37
2019-03-03T00:14:30.857Z,1005.35
2019-03-03T00:15:30.879Z,1005.33
2019-03-03T00:16:31.597Z,1005.35
2019-03-03T00:17:32.063Z,1005.32
2019-03-03T00:18:31.693Z,1005.31
2019-03-03T00:19:31.487Z,1005.28
2019-03-03T00:20:30.842Z,1005.22
2019-03-03T00:21:30.956Z,1005.20
2019-03-03T00:22:30.782Z,1005.20
2019-03-03T00:23:30.816Z,1005.19
2019-03-03T00:24:30.770Z,1005.20
2019-03-03T00:25:30.788Z,1005.18
2019-03-03T00:26:31.666Z,1005.19
2019-03-03T00:27:32.555Z,1005.16
2019-03-03T00:28:30.793Z,1005.17
2019-03-03T00:29:31.548Z,1005.10
2019-03-03T00:30:30.882Z,1005.06
2019-03-03T00:31:30.709Z,1005.11
2019-03-03T00:32:30.755Z,1005.14
2019-03-03T00:33:30.686Z,1005.07
2019-03-03T00:34:30.733Z,1005.08
2019-03-03T00:35:31.640Z,1005.09
2019-03-03T00:36:30.734Z,1005.13
2019-03-03T00:37:30.626Z,1005.06
2019-03-03T00:38:30.694Z,1005.07
2019-03-03T00:39:30.625Z,1005.09
2019-03-03T00:40:31.548Z,1005.02
2019-03-03T00:41:30.601Z,1004.97
2019-03-03T00:42:30.591Z,1004.99
2019-03-03T00:43:30.614Z,1005.02
2019-03-03T00:44:30.543Z,1004.96
2019-03-03T00:45:30.546Z,1004.99
2019-03-03T00:46:30.544Z,1005.00
2019-03-03T00:47:30.557Z,1005.00
2019-03-03T00:48:31.272Z,1005.05
2019-03-03T00:49:32.152Z,1005.04
2019-03-03T00:50:30.486Z,1005.01
2019-03-03T00:51:30.566Z,1004.98
2019-03-03T00:52:30.509Z,1005.03
2019-03-03T00:53:30.539Z,1005.00
2019-03-03T00:54:30.451Z,1004.96
2019-03-03T00:55:39.676Z,1004.89
2019-03-03T00:56:30.436Z,1004.86
2019-03-03T00:57:30.632Z,1004.89
2019-03-03T00:58:30.406Z,1004.89
2019-03-03T00:59:30.408Z,1004.89
2019-03-03T01:00:31.154Z,1004.87
2019-03-03T01:01:30.345Z,1004.88
2019-03-03T01:02:30.398Z,1004.90
2019-03-03T01:03:30.389Z,1004.85
2019-03-03T01:04:30.347Z,1004.93
2019-03-03T01:05:30.362Z,1004.89
2019-03-03T01:06:30.369Z,1004.91
2019-03-03T01:07:30.524Z,1004.91
2019-03-03T01:08:30.373Z,1004.88
2019-03-03T01:09:30.304Z,1004.87
2019-03-03T01:10:30.283Z,1004.83
2019-03-03T01:11:30.284Z,1004.84
2019-03-03T01:12:31.478Z,1004.89
2019-03-03T01:13:30.269Z,1004.90
2019-03-03T01:14:30.306Z,1004.85
2019-03-03T01:15:30.280Z,1004.84
2019-03-03T01:16:30.231Z,1004.84
2019-03-03T01:17:30.244Z,1004.85
2019-03-03T01:18:30.243Z,1004.86
2019-03-03T01:19:30.198Z,1004.83
2019-03-03T01:20:30.200Z,1004.86
2019-03-03T01:21:30.175Z,1004.83
2019-03-03T01:22:30.172Z,1004.80
2019-03-03T01:23:30.126Z,1004.81
2019-03-03T01:24:30.143Z,1004.79
2019-03-03T01:25:30.179Z,1004.80
2019-03-03T01:26:30.163Z,1004.79
2019-03-03T01:27:30.147Z,1004.80
2019-03-03T01:28:30.145Z,1004.83
2019-03-03T01:29:30.141Z,1004.81
2019-03-03T01:30:30.693Z,1004.83
2019-03-03T01:31:30.084Z,1004.77
2019-03-03T01:32:30.096Z,1004.72
2019-03-03T01:33:30.050Z,1004.73
2019-03-03T01:34:30.066Z,1004.76
2019-03-03T01:35:30.005Z,1004.73
2019-03-03T01:36:30.033Z,1004.73
2019-03-03T01:37:30.000Z,1004.72
2019-03-03T01:38:30.004Z,1004.73
2019-03-03T01:39:29.969Z,1004.67
2019-03-03T01:40:30.047Z,1004.69
2019-03-03T01:41:29.965Z,1004.63
2019-03-03T01:42:29.993Z,1004.59
2019-03-03T01:43:29.957Z,1004.56
2019-03-03T01:44:29.926Z,1004.59
2019-03-03T01:45:29.893Z,1004.48
2019-03-03T01:46:29.901Z,1004.51
2019-03-03T01:47:29.928Z,1004.55
2019-03-03T01:48:29.954Z,1004.52
2019-03-03T01:49:29.903Z,1004.55
2019-03-03T01:50:29.872Z,1004.48
2019-03-03T01:51:29.893Z,1004.47
2019-03-03T01:52:29.945Z,1004.45
2019-03-03T01:53:29.827Z,1004.44
2019-03-03T01:54:29.817Z,1004.44
2019-03-03T01:55:29.942Z,1004.39
2019-03-03T01:56:29.845Z,1004.38
2019-03-03T01:57:29.804Z,1004.33
2019-03-03T01:58:29.859Z,1004.30
2019-03-03T01:59:29.785Z,1004.26
2019-03-03T02:00:29.773Z,1004.27
2019-03-03T02:01:29.776Z,1004.23
2019-03-03T02:02:29.771Z,1004.23
2019-03-03T02:03:29.780Z,1004.23
2019-03-03T02:04:29.698Z,1004.25
2019-03-03T02:05:29.714Z,1004.23
2019-03-03T02:06:29.725Z,1004.25
2019-03-03T02:07:29.715Z,1004.23
2019-03-03T02:08:30.589Z,1004.20
2019-03-03T02:09:29.655Z,1004.22
2019-03-03T02:10:29.721Z,1004.24
2019-03-03T02:11:29.641Z,1004.27
2019-03-03T02:12:29.669Z,1004.25
2019-03-03T02:13:29.611Z,1004.27
2019-03-03T02:14:29.604Z,1004.22
2019-03-03T02:15:29.598Z,1004.20
2019-03-03T02:16:29.640Z,1004.21
2019-03-03T02:17:29.605Z,1004.19
2019-03-03T02:18:29.609Z,1004.13
2019-03-03T02:19:29.567Z,1004.15
2019-03-03T02:20:29.543Z,1004.14
2019-03-03T02:21:29.535Z,1004.12
2019-03-03T02:22:29.513Z,1004.09
2019-03-03T02:23:29.545Z,1004.13
2019-03-03T02:24:29.561Z,1004.12
2019-03-03T02:25:29.502Z,1004.10
2019-03-03T02:26:29.491Z,1004.07
2019-03-03T02:27:29.470Z,1004.08
2019-03-03T02:28:29.510Z,1004.08
2019-03-03T02:29:29.435Z,1004.04
2019-03-03T02:30:29.532Z,1004.03
2019-03-03T02:31:29.436Z,1004.05
2019-03-03T02:32:29.445Z,1004.03
2019-03-03T02:33:29.395Z,1004.07
2019-03-03T02:34:29.440Z,1004.07
2019-03-03T02:35:29.402Z,1004.07
2019-03-03T02:36:29.395Z,1004.01
2019-03-03T02:37:29.372Z,1004.06
2019-03-03T02:38:29.345Z,1004.01
2019-03-03T02:39:29.366Z,1003.98
2019-03-03T02:40:29.344Z,1003.98
2019-03-03T02:41:29.351Z,1003.97
2019-03-03T02:42:29.310Z,1003.99
2019-03-03T02:43:29.317Z,1003.98
2019-03-03T02:44:29.287Z,1003.96
2019-03-03T02:45:29.254Z,1003.90
2019-03-03T02:46:29.259Z,1003.91
2019-03-03T02:47:29.265Z,1003.89
2019-03-03T02:48:29.272Z,1003.86
2019-03-03T02:49:29.231Z,1003.85
2019-03-03T02:50:29.225Z,1003.88
2019-03-03T02:51:29.238Z,1003.82
2019-03-03T02:52:29.347Z,1003.87
2019-03-03T02:53:29.185Z,1003.90
2019-03-03T02:54:29.171Z,1003.85
2019-03-03T02:55:29.204Z,1003.86
2019-03-03T02:56:29.206Z,1003.88
2019-03-03T02:57:29.175Z,1003.91
2019-03-03T02:58:29.209Z,1003.90
2019-03-03T02:59:29.221Z,1003.92
2019-03-03T03:00:29.133Z,1003.92
2019-03-03T03:01:29.139Z,1003.88
2019-03-03T03:02:29.086Z,1003.87
2019-03-03T03:03:29.113Z,1003.92
2019-03-03T03:04:29.096Z,1003.89
2019-03-03T03:05:29.083Z,1003.98
2019-03-03T03:06:29.055Z,1003.91
2019-03-03T03:07:29.031Z,1003.83
2019-03-03T03:08:29.115Z,1003.91
2019-03-03T03:09:29.082Z,1003.84
2019-03-03T03:10:28.998Z,1003.81
2019-03-03T03:11:28.998Z,1003.78
2019-03-03T03:12:29.001Z,1003.80
2019-03-03T03:13:28.968Z,1003.78
2019-03-03T03:14:28.970Z,1003.80
2019-03-03T03:15:29.039Z,1003.73
2019-03-03T03:16:28.946Z,1003.68
2019-03-03T03:17:29.032Z,1003.58
2019-03-03T03:18:28.934Z,1003.65
2019-03-03T03:19:29.040Z,1003.58
2019-03-03T03:20:28.875Z,1003.62
2019-03-03T03:21:28.868Z,1003.59
2019-03-03T03:22:28.901Z,1003.68
2019-03-03T03:23:28.929Z,1003.66
2019-03-03T03:24:28.889Z,1003.59
2019-03-03T03:25:28.861Z,1003.56
2019-03-03T03:26:28.827Z,1003.54
2019-03-03T03:27:28.855Z,1003.51
2019-03-03T03:28:28.874Z,1003.48
2019-03-03T03:29:29.602Z,1003.48
2019-03-03T03:30:28.793Z,1003.52
2019-03-03T03:31:28.785Z,1003.45
2019-03-03T03:32:28.810Z,1003.48
2019-03-03T03:33:28.757Z,1003.44
2019-03-03T03:34:28.772Z,1003.40
2019-03-03T03:35:28.759Z,1003.44
2019-03-03T03:36:28.749Z,1003.42
2019-03-03T03:37:28.700Z,1003.33
2019-03-03T03:38:28.716Z,1003.33
2019-03-03T03:39:28.669Z,1003.34
2019-03-03T03:40:28.684Z,1003.34
2019-03-03T03:41:28.680Z,1003.32
2019-03-03T03:42:28.699Z,1003.28
2019-03-03T03:43:28.677Z,1003.32
2019-03-03T03:44:28.652Z,1003.31
2019-03-03T03:45:28.620Z,1003.28
2019-03-03T03:46:28.624Z,1003.27
2019-03-03T03:47:28.629Z,1003.23
2019-03-03T03:48:28.595Z,1003.20
2019-03-03T03:49:28.590Z,1003.21
2019-03-03T03:50:28.607Z,1003.15
2019-03-03T03:51:28.571Z,1003.15
2019-03-03T03:52:29.109Z,1003.12
2019-03-03T03:53:28.550Z,1003.11
2019-03-03T03:54:28.534Z,1003.10
2019-03-03T03:55:28.571Z,1003.09
2019-03-03T03:56:28.527Z,1003.12
2019-03-03T03:57:28.554Z,1003.07
2019-03-03T03:58:28.501Z,1003.04
2019-03-03T03:59:28.482Z,1003.04
2019-03-03T04:00:28.483Z,1003.02
2019-03-03T04:01:28.436Z,1003.01
2019-03-03T04:02:28.505Z,1003.05
2019-03-03T04:03:28.445Z,1003.03
2019-03-03T04:04:28.407Z,1003.01
2019-03-03T04:05:28.444Z,1002.98
2019-03-03T04:06:28.402Z,1003.00
2019-03-03T04:07:28.460Z,1002.98
2019-03-03T04:08:28.403Z,1002.96
2019-03-03T04:09:28.359Z,1002.94
2019-03-03T04:10:28.409Z,1002.88
2019-03-03T04:11:28.352Z,1002.87
2019-03-03T04:12:28.333Z,1002.83
2019-03-03T04:13:28.368Z,1002.78
2019-03-03T04:14:28.355Z,1002.78
2019-03-03T04:15:28.398Z,1002.75
2019-03-03T04:16:28.297Z,1002.69
2019-03-03T04:17:28.279Z,1002.67
2019-03-03T04:18:28.311Z,1002.72
2019-03-03T04:19:28.261Z,1002.69
2019-03-03T04:20:28.293Z,1002.64
2019-03-03T04:21:28.225Z,1002.65
2019-03-03T04:22:28.270Z,1002.61
2019-03-03T04:23:28.245Z,1002.66
2019-03-03T04:24:28.223Z,1002.57
2019-03-03T04:25:28.207Z,1002.58
2019-03-03T04:26:28.236Z,1002.56
2019-03-03T04:27:28.183Z,1002.56
2019-03-03T04:28:28.182Z,1002.57
2019-03-03T04:29:28.233Z,1002.58
2019-03-03T04:30:28.157Z,1002.55
2019-03-03T04:31:28.177Z,1002.50
2019-03-03T04:32:28.196Z,1002.50
2019-03-03T04:33:28.136Z,1002.48
2019-03-03T04:34:28.110Z,1002.53
2019-03-03T04:35:28.116Z,1002.52
2019-03-03T04:36:28.110Z,1002.49
2019-03-03T04:37:28.080Z,1002.45
2019-03-03T04:38:28.069Z,1002.48
2019-03-03T04:39:28.148Z,1002.50
2019-03-03T04:40:28.055Z,1002.48
2019-03-03T04:41:28.044Z,1002.47
2019-03-03T04:42:28.057Z,1002.50
2019-03-03T04:43:29.735Z,1002.53
2019-03-03T04:44:27.996Z,1002.52
2019-03-03T04:45:28.082Z,1002.43
2019-03-03T04:46:28.041Z,1002.44
2019-03-03T04:47:27.975Z,1002.48
2019-03-03T04:48:27.988Z,1002.40
2019-03-03T04:49:27.972Z,1002.39
2019-03-03T04:50:28.042Z,1002.40
2019-03-03T04:51:28.894Z,1002.36
2019-03-03T04:52:27.919Z,1002.37
2019-03-03T04:53:28.011Z,1002.35
2019-03-03T04:54:27.890Z,1002.31
2019-03-03T04:55:27.865Z,1002.33
2019-03-03T04:56:28.622Z,1002.30
2019-03-03T04:57:27.903Z,1002.37
2019-03-03T04:58:27.864Z,1002.39
2019-03-03T04:59:27.851Z,1002.40
2019-03-03T05:00:27.855Z,1002.36
2019-03-03T05:01:27.834Z,1002.40
2019-03-03T05:02:27.867Z,1002.39
2019-03-03T05:03:27.841Z,1002.38
2019-03-03T05:04:27.793Z,1002.40
2019-03-03T05:05:27.770Z,1002.39
2019-03-03T05:06:28.622Z,1002.36
2019-03-03T05:07:27.741Z,1002.42
2019-03-03T05:08:27.747Z,1002.40
2019-03-03T05:09:27.722Z,1002.37
2019-03-03T05:10:27.726Z,1002.34
2019-03-03T05:11:28.228Z,1002.34
2019-03-03T05:12:27.723Z,1002.37
2019-03-03T05:13:27.692Z,1002.32
2019-03-03T05:14:28.622Z,1002.33
2019-03-03T05:15:27.647Z,1002.28
2019-03-03T05:16:27.647Z,1002.31
2019-03-03T05:17:27.657Z,1002.25
2019-03-03T05:18:27.638Z,1002.30
2019-03-03T05:19:27.626Z,1002.24
2019-03-03T05:20:27.623Z,1002.30
2019-03-03T05:21:27.593Z,1002.26
2019-03-03T05:22:27.594Z,1002.26
2019-03-03T05:23:27.572Z,1002.28
2019-03-03T05:24:34.038Z,1002.28
2019-03-03T05:25:28.567Z,1002.21
2019-03-03T05:26:27.527Z,1002.27
2019-03-03T05:27:27.526Z,1002.17
2019-03-03T05:28:27.522Z,1002.23
2019-03-03T05:29:27.512Z,1002.19
2019-03-03T05:30:27.503Z,1002.22
2019-03-03T05:31:29.371Z,1002.20
2019-03-03T05:32:27.484Z,1002.21
2019-03-03T05:33:27.465Z,1002.21
2019-03-03T05:34:27.459Z,1002.16
2019-03-03T05:35:27.452Z,1002.20
2019-03-03T05:36:27.431Z,1002.19
2019-03-03T05:37:27.447Z,1002.15
2019-03-03T05:38:27.403Z,1002.18
2019-03-03T05:39:27.480Z,1002.15
2019-03-03T05:40:27.456Z,1002.13
2019-03-03T05:41:27.393Z,1002.05
2019-03-03T05:42:27.360Z,1002.01
2019-03-03T05:43:27.350Z,1002.00
2019-03-03T05:44:27.361Z,1001.96
2019-03-03T05:45:27.375Z,1001.96
2019-03-03T05:46:27.726Z,1001.92
2019-03-03T05:47:27.330Z,1001.89
2019-03-03T05:48:27.330Z,1001.91
2019-03-03T05:49:27.311Z,1001.88
2019-03-03T05:50:27.273Z,1001.86
2019-03-03T05:51:27.301Z,1001.86
2019-03-03T05:52:27.263Z,1001.90
2019-03-03T05:53:27.284Z,1001.91
2019-03-03T05:54:27.270Z,1001.91
2019-03-03T05:55:27.230Z,1001.89
2019-03-03T05:56:27.235Z,1001.90
2019-03-03T05:57:27.229Z,1001.91
2019-03-03T05:58:27.207Z,1001.93
2019-03-03T05:59:27.198Z,1001.87
2019-03-03T06:00:27.184Z,1001.87
2019-03-03T06:01:27.163Z,1001.87
2019-03-03T06:02:27.164Z,1001.87
2019-03-03T06:03:27.175Z,1001.84
2019-03-03T06:04:27.129Z,1001.81
2019-03-03T06:05:27.138Z,1001.83
2019-03-03T06:06:27.129Z,1001.80
2019-03-03T06:07:27.105Z,1001.84
2019-03-03T06:08:27.089Z,1001.76
2019-03-03T06:09:27.121Z,1001.78
2019-03-03T06:10:27.079Z,1001.76
2019-03-03T06:11:27.059Z,1001.76
2019-03-03T06:12:27.053Z,1001.77
2019-03-03T06:14:04.628Z,1001.71
2019-03-03T06:14:27.147Z,1001.70
2019-03-03T06:15:41.892Z,1001.70
2019-03-03T06:16:27.084Z,1001.73
2019-03-03T06:17:27.681Z,1001.71
2019-03-03T06:18:27.083Z,1001.70
2019-03-03T06:19:27.134Z,1001.75
2019-03-03T06:20:29.180Z,1001.68
2019-03-03T06:21:27.776Z,1001.70
2019-03-03T06:22:26.989Z,1001.68
2019-03-03T06:23:26.941Z,1001.66
2019-03-03T06:24:26.945Z,1001.66
2019-03-03T06:25:27.059Z,1001.67
2019-03-03T06:26:26.908Z,1001.67
2019-03-03T06:27:26.908Z,1001.63
2019-03-03T06:28:26.899Z,1001.65
2019-03-03T06:29:26.858Z,1001.63
2019-03-03T06:30:26.867Z,1001.56
2019-03-03T06:31:26.883Z,1001.54
2019-03-03T06:32:26.849Z,1001.58
2019-03-03T06:33:26.903Z,1001.52
2019-03-03T06:34:26.898Z,1001.53
2019-03-03T06:35:26.819Z,1001.49
2019-03-03T06:36:26.868Z,1001.44
2019-03-03T06:37:27.247Z,1001.44
2019-03-03T06:38:26.771Z,1001.41
2019-03-03T06:39:26.790Z,1001.40
2019-03-03T06:40:26.761Z,1001.39
2019-03-03T06:41:27.633Z,1001.42
2019-03-03T06:42:26.740Z,1001.41
2019-03-03T06:43:26.731Z,1001.39
2019-03-03T06:44:26.716Z,1001.36
2019-03-03T06:45:26.753Z,1001.35
2019-03-03T06:46:26.695Z,1001.35
2019-03-03T06:47:26.683Z,1001.32
2019-03-03T06:48:26.684Z,1001.33
2019-03-03T06:49:26.703Z,1001.31
2019-03-03T06:50:26.654Z,1001.29
2019-03-03T06:51:26.638Z,1001.31
2019-03-03T06:52:26.657Z,1001.35
2019-03-03T06:53:26.641Z,1001.34
2019-03-03T06:54:26.593Z,1001.39
2019-03-03T06:55:26.606Z,1001.31
2019-03-03T06:56:26.590Z,1001.30
2019-03-03T06:57:26.583Z,1001.31
2019-03-03T06:58:26.585Z,1001.35
2019-03-03T06:59:26.557Z,1001.35
2019-03-03T07:00:26.565Z,1001.27
2019-03-03T07:01:26.601Z,1001.21
2019-03-03T07:02:26.584Z,1001.17
2019-03-03T07:03:26.552Z,1001.18
2019-03-03T07:04:26.504Z,1001.20
2019-03-03T07:05:26.495Z,1001.20
2019-03-03T07:06:26.507Z,1001.21
2019-03-03T07:07:26.614Z,1001.18
2019-03-03T07:08:26.455Z,1001.17
2019-03-03T07:09:26.524Z,1001.19
2019-03-03T07:10:26.569Z,1001.17
2019-03-03T07:11:26.481Z,1001.17
2019-03-03T07:12:26.629Z,1001.21
2019-03-03T07:13:26.458Z,1001.17
2019-03-03T07:14:26.694Z,1001.15
2019-03-03T07:15:26.424Z,1001.13
2019-03-03T07:16:26.547Z,1001.13
2019-03-03T07:17:26.384Z,1001.16
2019-03-03T07:18:26.505Z,1001.09
2019-03-03T07:19:26.412Z,1001.07
2019-03-03T07:20:26.428Z,1001.12
2019-03-03T07:21:26.356Z,1001.11
2019-03-03T07:22:26.313Z,1001.15
2019-03-03T07:23:26.298Z,1001.07
2019-03-03T07:24:27.142Z,1001.07
2019-03-03T07:25:26.280Z,1001.10
2019-03-03T07:26:26.309Z,1001.08
2019-03-03T07:27:26.339Z,1001.16
2019-03-03T07:28:26.262Z,1001.08
2019-03-03T07:29:27.136Z,1001.07
2019-03-03T07:30:26.248Z,1001.10
2019-03-03T07:31:26.228Z,1001.06
2019-03-03T07:32:26.241Z,1001.01
2019-03-03T07:33:27.245Z,1000.99
2019-03-03T07:34:26.476Z,1000.99
2019-03-03T07:35:26.244Z,1000.99
2019-03-03T07:36:26.157Z,1001.00
2019-03-03T07:37:26.141Z,1000.97
2019-03-03T07:38:26.155Z,1000.90
2019-03-03T07:39:26.705Z,1000.97
2019-03-03T07:40:26.123Z,1000.97
2019-03-03T07:41:26.113Z,1000.96
2019-03-03T07:42:26.102Z,1000.92
2019-03-03T07:43:26.401Z,1000.93
2019-03-03T07:44:26.080Z,1000.94
2019-03-03T07:45:26.120Z,1000.96
2019-03-03T07:46:26.048Z,1000.96
2019-03-03T07:47:26.063Z,1000.92
2019-03-03T07:48:26.284Z,1000.96
2019-03-03T07:49:26.019Z,1000.90
2019-03-03T07:50:26.040Z,1000.89
2019-03-03T07:51:26.024Z,1000.85
2019-03-03T07:52:26.804Z,1000.84
2019-03-03T07:53:26.053Z,1000.86
2019-03-03T07:54:26.048Z,1000.93
2019-03-03T07:55:25.948Z,1000.87
2019-03-03T07:56:25.948Z,1000.91
2019-03-03T07:57:25.970Z,1000.75
2019-03-03T07:58:25.921Z,1000.82
2019-03-03T07:59:25.914Z,1000.76
2019-03-03T08:00:25.920Z,1000.87
2019-03-03T08:01:25.908Z,1000.80
2019-03-03T08:02:26.799Z,1000.88
2019-03-03T08:03:25.905Z,1000.85
2019-03-03T08:04:25.941Z,1000.87
2019-03-03T08:05:25.876Z,1000.80
2019-03-03T08:06:25.859Z,1000.75
2019-03-03T08:07:25.863Z,1000.78
2019-03-03T08:08:25.841Z,1000.83
2019-03-03T08:09:26.747Z,1000.73
2019-03-03T08:10:25.833Z,1000.83
2019-03-03T08:11:25.886Z,1000.70
2019-03-03T08:12:25.816Z,1000.72
2019-03-03T08:13:25.829Z,1000.66
2019-03-03T08:14:25.785Z,1000.71
2019-03-03T08:15:25.740Z,1000.64
2019-03-03T08:16:25.730Z,1000.65
2019-03-03T08:17:25.740Z,1000.75
2019-03-03T08:18:25.746Z,1000.64
2019-03-03T08:19:25.722Z,1000.68
2019-03-03T08:20:25.705Z,1000.61
2019-03-03T08:21:26.069Z,1000.60
2019-03-03T08:22:25.695Z,1000.54
2019-03-03T08:23:25.666Z,1000.52
2019-03-03T08:24:25.684Z,1000.49
2019-03-03T08:25:25.643Z,1000.57
2019-03-03T08:26:25.658Z,1000.52
2019-03-03T08:27:25.622Z,1000.53
2019-03-03T08:28:25.643Z,1000.59
2019-03-03T08:29:25.595Z,1000.64
2019-03-03T08:30:26.658Z,1000.48
2019-03-03T08:31:25.607Z,1000.51
2019-03-03T08:32:25.581Z,1000.49
2019-03-03T08:33:25.571Z,1000.55
2019-03-03T08:34:25.575Z,1000.56
2019-03-03T08:35:25.596Z,1000.46
2019-03-03T08:36:26.161Z,1000.49
2019-03-03T08:37:25.517Z,1000.56
2019-03-03T08:38:25.634Z,1000.51
2019-03-03T08:39:26.267Z,1000.50
2019-03-03T08:40:28.263Z,1000.58
2019-03-03T08:41:25.485Z,1000.53
2019-03-03T08:42:25.460Z,1000.56
2019-03-03T08:43:25.462Z,1000.68
2019-03-03T08:44:25.451Z,1000.71
2019-03-03T08:45:25.593Z,1000.62
2019-03-03T08:46:25.590Z,1000.66
2019-03-03T08:47:25.453Z,1000.68
2019-03-03T08:48:25.565Z,1000.75
2019-03-03T08:49:25.411Z,1000.70
2019-03-03T08:50:25.512Z,1000.75
2019-03-03T08:51:25.414Z,1000.64
2019-03-03T08:52:25.355Z,1000.71
2019-03-03T08:53:25.369Z,1000.70
2019-03-03T08:54:25.419Z,1000.65
2019-03-03T08:55:25.655Z,1000.74
2019-03-03T08:56:25.440Z,1000.60
2019-03-03T08:57:25.417Z,1000.64
2019-03-03T08:58:25.332Z,1000.61
2019-03-03T08:59:25.301Z,1000.57
2019-03-03T09:00:25.306Z,1000.57
2019-03-03T09:01:25.326Z,1000.50
2019-03-03T09:02:25.272Z,1000.57
2019-03-03T09:03:25.289Z,1000.65
2019-03-03T09:04:25.318Z,1000.67
2019-03-03T09:05:25.424Z,1000.60
2019-03-03T09:06:25.213Z,1000.58
2019-03-03T09:07:25.235Z,1000.60
2019-03-03T09:08:25.220Z,1000.61
2019-03-03T09:09:25.311Z,1000.56
2019-03-03T09:10:25.685Z,1000.51
2019-03-03T09:11:25.152Z,1000.60
2019-03-03T09:12:25.143Z,1000.62
2019-03-03T09:13:25.179Z,1000.60
2019-03-03T09:14:25.240Z,1000.57
2019-03-03T09:15:25.163Z,1000.53
2019-03-03T09:16:25.184Z,1000.59
2019-03-03T09:17:25.149Z,1000.58
2019-03-03T09:18:25.109Z,1000.57
2019-03-03T09:19:25.194Z,1000.54
2019-03-03T09:20:25.063Z,1000.55
2019-03-03T09:21:25.091Z,1000.56
2019-03-03T09:22:25.083Z,1000.60
2019-03-03T09:23:25.042Z,1000.65
2019-03-03T09:24:25.764Z,1000.66
2019-03-03T09:25:25.035Z,1000.69
2019-03-03T09:26:25.024Z,1000.69
2019-03-03T09:27:25.016Z,1000.66
2019-03-03T09:28:24.995Z,1000.62
2019-03-03T09:29:25.061Z,1000.62
2019-03-03T09:30:24.994Z,1000.64
2019-03-03T09:31:24.980Z,1000.56
2019-03-03T09:32:24.954Z,1000.63
2019-03-03T09:33:25.668Z,1000.65
2019-03-03T09:34:25.709Z,1000.67
2019-03-03T09:35:24.920Z,1000.68
2019-03-03T09:36:24.926Z,1000.68
2019-03-03T09:37:24.925Z,1000.66
2019-03-03T09:38:24.975Z,1000.74
2019-03-03T09:39:24.845Z,1000.73
2019-03-03T09:40:25.788Z,1000.59
2019-03-03T09:41:25.672Z,1000.67
2019-03-03T09:42:24.891Z,1000.68
2019-03-03T09:43:24.856Z,1000.66
2019-03-03T09:46:06.447Z,1000.68
2019-03-03T15:16:16.547Z,999.44
2019-03-03T15:17:16.535Z,999.42
2019-03-03T15:18:16.526Z,999.46
2019-03-03T15:19:16.492Z,999.43
2019-03-03T15:20:16.476Z,999.45
2019-03-03T15:21:24.843Z,999.41
2019-03-03T15:22:17.559Z,999.46
2019-03-03T15:23:16.451Z,999.44
2019-03-03T15:24:16.470Z,999.40
2019-03-03T15:25:16.441Z,999.41
2019-03-03T15:26:16.448Z,999.38
2019-03-03T15:27:16.443Z,999.41
2019-03-03T15:28:16.444Z,999.35
2019-03-03T15:29:17.519Z,999.31
2019-03-03T15:30:16.418Z,999.35
2019-03-03T15:31:16.430Z,999.31
2019-03-03T15:32:16.467Z,999.35
2019-03-03T15:33:16.416Z,999.35
2019-03-03T15:34:16.397Z,999.31
2019-03-03T15:35:16.388Z,999.31
2019-03-03T15:36:16.394Z,999.29
2019-03-03T15:37:16.352Z,999.23
2019-03-03T15:38:17.295Z,999.29
2019-03-03T15:39:16.344Z,999.27
2019-03-03T15:40:16.312Z,999.22
2019-03-03T15:41:16.350Z,999.18
2019-03-03T15:42:16.306Z,999.20
2019-03-03T15:43:16.370Z,999.17
2019-03-03T15:44:16.252Z,999.13
2019-03-03T15:45:16.250Z,999.16
2019-03-03T15:46:16.270Z,999.08
2019-03-03T15:47:16.273Z,999.07
2019-03-03T15:48:16.219Z,999.04
2019-03-03T15:49:16.287Z,999.13
2019-03-03T15:50:16.261Z,999.07
2019-03-03T15:51:16.299Z,998.99
2019-03-03T15:52:16.165Z,999.03
2019-03-03T15:53:17.800Z,999.04
2019-03-03T15:54:16.424Z,999.04
2019-03-03T15:55:17.989Z,999.03
2019-03-03T15:56:16.154Z,998.99
2019-03-03T15:57:16.236Z,999.04
2019-03-03T15:58:16.861Z,998.97
2019-03-03T15:59:16.156Z,998.89
2019-03-03T16:00:16.801Z,998.91
2019-03-03T16:01:16.148Z,998.97
2019-03-03T16:02:16.181Z,998.88
2019-03-03T16:03:16.108Z,998.86
2019-03-03T16:04:17.172Z,998.90
2019-03-03T16:05:16.084Z,998.86
2019-03-03T16:06:16.064Z,998.80
2019-03-03T16:07:16.219Z,998.85
2019-03-03T16:08:16.026Z,998.87
2019-03-03T16:09:16.258Z,998.82
2019-03-03T16:10:17.801Z,998.85
2019-03-03T16:11:15.987Z,998.85
2019-03-03T16:12:16.034Z,998.79
2019-03-03T16:13:15.957Z,998.80
2019-03-03T16:14:16.895Z,998.76
2019-03-03T16:15:16.075Z,998.70
2019-03-03T16:16:15.902Z,998.72
2019-03-03T16:17:15.910Z,998.76
2019-03-03T16:18:16.008Z,998.70
2019-03-03T16:19:15.924Z,998.69
2019-03-03T16:20:15.920Z,998.67
2019-03-03T16:21:21.532Z,998.69
2019-03-03T16:22:46.884Z,998.63
2019-03-03T16:23:22.100Z,998.63
2019-03-03T16:26:32.728Z,998.59
2019-03-03T16:28:16.479Z,998.59
2019-03-03T16:28:36.955Z,998.55
2019-03-03T16:29:53.637Z,998.56
2019-03-03T16:30:32.635Z,998.52
2019-03-03T16:31:44.403Z,998.53
2019-03-03T16:35:15.654Z,998.49
2019-03-03T16:35:38.265Z,998.44
2019-03-03T16:36:30.283Z,998.44
2019-03-03T16:37:38.325Z,998.45
2019-03-03T16:38:41.233Z,998.47
2019-03-03T16:39:48.884Z,998.42
2019-03-03T16:40:43.559Z,998.45
2019-03-03T16:42:05.602Z,998.43
2019-03-03T16:42:42.622Z,998.51
2019-03-03T16:46:04.482Z,998.45
2019-03-03T16:46:55.658Z,998.45
2019-03-03T16:47:55.684Z,998.47
2019-03-03T16:48:55.759Z,998.44
2019-03-03T16:49:55.620Z,998.41
2019-03-03T16:50:56.550Z,998.49
2019-03-03T16:51:58.512Z,998.39
2019-03-03T16:52:56.461Z,998.43
2019-03-03T16:53:55.588Z,998.43
2019-03-03T16:54:56.493Z,998.43
2019-03-03T16:55:55.642Z,998.38
2019-03-03T16:56:55.687Z,998.37
2019-03-03T16:57:55.584Z,998.43
2019-03-03T16:58:57.679Z,998.37
2019-03-03T16:59:55.563Z,998.33
2019-03-03T17:00:55.672Z,998.36
2019-03-03T17:01:55.524Z,998.35
2019-03-03T17:02:55.509Z,998.34
2019-03-03T17:03:55.499Z,998.36
2019-03-03T17:04:55.639Z,998.37
2019-03-03T17:05:55.459Z,998.34
2019-03-03T17:06:58.559Z,998.25
2019-03-03T17:08:00.517Z,998.28
2019-03-03T17:09:05.664Z,998.31
2019-03-03T17:10:16.113Z,998.29
2019-03-03T17:11:08.916Z,998.27
2019-03-03T17:12:13.667Z,998.29
2019-03-03T17:12:56.895Z,998.22
2019-03-03T17:13:57.890Z,998.26
2019-03-03T17:14:56.761Z,998.26
2019-03-03T17:15:56.445Z,998.30
2019-03-03T17:16:55.664Z,998.19
2019-03-03T17:17:55.731Z,998.25
2019-03-03T17:18:55.947Z,998.24
2019-03-03T17:19:56.245Z,998.24
2019-03-03T17:20:56.923Z,998.15
2019-03-03T17:22:00.297Z,998.25
2019-03-03T17:22:56.452Z,998.21
2019-03-03T17:23:56.115Z,998.20
2019-03-03T17:24:58.818Z,998.14
2019-03-03T17:25:56.900Z,998.21
2019-03-03T17:26:56.887Z,998.22
2019-03-03T17:27:57.455Z,998.17
2019-03-03T17:28:56.024Z,998.19
2019-03-03T17:29:57.424Z,998.19
2019-03-03T17:30:57.321Z,998.22
2019-03-03T17:32:00.469Z,998.12
2019-03-03T18:30:24.354Z,997.86
2019-03-03T18:31:17.749Z,997.88
2019-03-03T18:32:16.589Z,997.77
2019-03-03T18:33:17.634Z,997.79
2019-03-03T18:34:16.696Z,997.73
2019-03-03T18:35:19.009Z,997.75
2019-03-03T18:36:16.777Z,997.77
2019-03-03T18:37:16.644Z,997.76
2019-03-03T18:38:16.746Z,997.75
2019-03-03T18:39:17.620Z,997.78
2019-03-03T18:40:16.711Z,997.65
2019-03-03T18:41:17.010Z,997.71
2019-03-03T18:42:16.511Z,997.70
2019-03-03T18:43:16.918Z,997.70
2019-03-03T18:44:17.158Z,997.70
2019-03-03T18:45:17.051Z,997.71